^^
Meteo Knjazevac Station Historical Data
Daily Summary for April 28, 2021 Units:  Metric    English   Both
Daily Weekly Monthly Yearly Custom
  High: Low: Average:
Temperature: 18.6 °C 13.7 °C 15.6 °C
Dew Point: 15.4 °C 12.4 °C 13.7 °C
Humidity: 94% 82% 89%
Wind Speed: 4.8km/h 0km/h 2.3km/h
Wind Gust: 8km/h - -
Wind- - West
Pressure: 1019.9 hPa 1019.2 hPa -
Precipitation: 0 mm    
Historical Graphs
 
 
Tabular Data for April 28, 2021
Time Temperature Dew Point Pressure Wind Wind Speed Wind Gust Humidity Rainfall Rate (Hourly) solar Conditions
00:00 18.6 °C 15.4 °C 1019.2 hPa NW 1.6 km/h 4.8 km/h 82% 0 mm 0 W/m2
00:10 18.3 °C 15.2 °C 1019.2 hPa WNW 1.6 km/h 4.8 km/h 82% 0 mm 0 W/m2
00:20 18.1 °C 15.1 °C 1019.2 hPa Calm   3.2 km/h 83% 0 mm 0 W/m2
00:30 17.7 °C 14.9 °C 1019.2 hPa West 1.6 km/h 3.2 km/h 84% 0 mm 0 W/m2
00:40 17.4 °C 14.8 °C 1019.5 hPa West 3.2 km/h 4.8 km/h 85% 0 mm 0 W/m2
00:50 17.2 °C 14.7 °C 1019.5 hPa WSW 3.2 km/h 4.8 km/h 85% 0 mm 0 W/m2
01:00 16.9 °C 14.3 °C 1019.5 hPa West 3.2 km/h 6.4 km/h 85% 0 mm 0 W/m2
01:20 16.6 °C 14.2 °C 1019.5 hPa West 3.2 km/h 6.4 km/h 86% 0 mm 0 W/m2
01:30 16.6 °C 14.2 °C 1019.5 hPa NW 1.6 km/h 4.8 km/h 86% 0 mm 0 W/m2
01:40 16.4 °C 14.1 °C 1019.5 hPa WNW 1.6 km/h 4.8 km/h 86% 0 mm 0 W/m2
01:50 16.2 °C 14.2 °C 1019.5 hPa West 3.2 km/h 8 km/h 88% 0 mm 0 W/m2
02:00 16.2 °C 14.2 °C 1019.5 hPa West 3.2 km/h 6.4 km/h 88% 0 mm 0 W/m2
02:10 16.2 °C 14.2 °C 1019.5 hPa West 3.2 km/h 6.4 km/h 88% 0 mm 0 W/m2
02:20 16.1 °C 14.1 °C 1019.9 hPa WNW 1.6 km/h 6.4 km/h 88% 0 mm 0 W/m2
02:30 15.9 °C 13.9 °C 1019.9 hPa WNW 1.6 km/h 3.2 km/h 88% 0 mm 0 W/m2
02:40 15.6 °C 13.6 °C 1019.9 hPa Calm   3.2 km/h 88% 0 mm 0 W/m2
02:50 15.5 °C 13.7 °C 1019.9 hPa NNW 1.6 km/h 3.2 km/h 89% 0 mm 0 W/m2
03:00 15.2 °C 13.4 °C 1019.9 hPa Calm   3.2 km/h 89% 0 mm 0 W/m2
03:10 15.1 °C 13.4 °C 1019.9 hPa WNW 3.2 km/h 4.8 km/h 90% 0 mm 0 W/m2
03:20 15 °C 13.4 °C 1019.9 hPa WNW 1.6 km/h 4.8 km/h 90% 0 mm 0 W/m2
03:30 14.8 °C 13.2 °C 1019.9 hPa WNW 1.6 km/h 4.8 km/h 90% 0 mm 0 W/m2
03:40 14.6 °C 13 °C 1019.9 hPa WSW 1.6 km/h 4.8 km/h 90% 0 mm 0 W/m2
03:50 14.5 °C 13.1 °C 1019.9 hPa WSW 3.2 km/h 4.8 km/h 91% 0 mm 0 W/m2
04:00 14.4 °C 12.9 °C 1019.9 hPa West 4.8 km/h 8 km/h 91% 0 mm 0 W/m2
04:10 14.5 °C 13.1 °C 1019.9 hPa West 3.2 km/h 8 km/h 91% 0 mm 0 W/m2
04:20 14.4 °C 12.9 °C 1019.9 hPa West 3.2 km/h 4.8 km/h 91% 0 mm 0 W/m2
04:30 14.3 °C 12.8 °C 1019.9 hPa NW 3.2 km/h 6.4 km/h 91% 0 mm 0 W/m2
04:40 14.2 °C 12.8 °C 1019.9 hPa West 1.6 km/h 4.8 km/h 91% 0 mm 0 W/m2
04:50 14.1 °C 12.6 °C 1019.9 hPa WSW 1.6 km/h 4.8 km/h 91% 0 mm 0 W/m2
05:00 13.8 °C 12.4 °C 1019.9 hPa West 3.2 km/h 4.8 km/h 91% 0 mm 7 W/m2
05:10 13.7 °C 12.6 °C 1019.9 hPa West 3.2 km/h 6.4 km/h 93% 0 mm 14 W/m2
05:20 13.7 °C 12.6 °C 1019.9 hPa West 1.6 km/h 6.4 km/h 93% 0 mm 21 W/m2
05:30 13.7 °C 12.8 °C 1019.9 hPa West 1.6 km/h 4.8 km/h 94% 0 mm 28 W/m2
05:40 13.8 °C 12.7 °C 1019.9 hPa WNW 1.6 km/h 4.8 km/h 93% 0 mm 35 W/m2
Knjazevac, Serbia
Compliments of Weather Underground - 2 mb